Terminal Aerodrome Forecast
Issued by NWS

Home | Current Version | Previous Version | Text Only | Print | Product List | Glossary On
Versions: 1 2 3 4 5 6 7 8 9 10 11 12 13 14 15 16 17 18 19 20 21 22 23 24 25
815
FTUS43 KEAX 211745 CCA
TAFMKC
TAF COR
KMKC 211745Z 2118/2218 22010KT P6SM BKN012
     FM211900 19006KT P6SM SCT120
     FM220100 04005KT P6SM VCSH OVC050
     FM221200 35009KT P6SM SCT015=

USA.gov is the U.S. government's official web portal to all federal, state and local government web resources and services.